Latest Weather Observations for Biloela

IDQ60801

Issued at 7:32 pm EST Friday 22 May 2015 (issued every 30 minutes, with the page automatically refreshed every 10 minutes)

About weather observations | Map of weather stations | Latest weather observations for QLD | Other Formats
Station Details ID: 039089 Name: THANGOOL AIRPORT Lat: -24.49 Lon: 150.57 Height: 193.1 m
Data from the previous 72 hours. | See also: Recent months at Biloela
Date/Time
EST
Temp
°C
App
Temp
°C
Dew
Point
Rel
Hum
%
Delta-T
°C
Wind Press
QNH
hPa
Press
MSL
hPa
Rain
since 9 am
mm
Dir
 
Spd
km/h
Gust
km/h
Spd
kts
Gust
kts
22/07:30pm 13.0 10.4 6.1 63 3.3 S 9 19 5 10 1022.5 - 0.0
22/07:00pm 13.5 10.5 6.1 61 3.5 S 11 17 6 9 1021.9 - 0.0
22/06:30pm 14.2 10.9 6.3 59 3.8 SSW 13 26 7 14 1021.3 - 0.0
22/06:00pm 14.8 11.1 6.1 56 4.2 SW 15 22 8 12 1020.7 1020.2 0.0
22/05:30pm 15.9 12.2 6.1 52 4.8 SSW 15 20 8 11 1020.2 - 0.0
22/05:00pm 17.2 12.6 5.8 47 5.6 SSW 19 28 10 15 1019.7 - 0.0
22/04:30pm 18.0 13.8 5.6 44 6.1 SSW 17 28 9 15 1019.3 - 0.0
22/04:00pm 18.6 13.6 4.8 40 6.7 SSW 20 30 11 16 1019.2 - 0.0
22/03:30pm 19.0 14.5 4.0 37 7.2 SSW 17 30 9 16 1019.0 - 0.0
22/03:00pm 19.3 14.1 3.5 35 7.5 SW 20 33 11 18 1018.8 1018.3 0.0
22/02:30pm 19.6 14.4 3.7 35 7.6 SSW 20 35 11 19 1019.0 - 0.0
22/02:00pm 20.0 14.7 2.8 32 8.1 SSW 20 35 11 19 1019.0 - 0.0
22/01:30pm 19.1 13.2 2.0 32 7.9 SW 22 39 12 21 1019.3 - 0.0
22/01:00pm 20.4 14.9 4.0 34 7.9 SW 22 35 12 19 1019.4 - 0.0
22/12:30pm 19.4 13.4 3.6 35 7.5 SSW 24 37 13 20 1019.7 - 0.0
22/12:00pm 19.5 14.7 5.6 40 6.9 SSW 20 35 11 19 1020.1 1019.6 0.0
22/11:30am 18.9 14.3 5.4 41 6.6 SSW 19 30 10 16 1020.7 - 0.0
22/11:00am 18.5 13.4 6.0 44 6.2 SSW 22 35 12 19 1021.1 - 0.0
22/10:30am 18.5 14.1 7.3 48 5.7 SSW 20 32 11 17 1021.4 - 0.0
22/10:00am 17.3 13.0 6.8 50 5.2 S 19 35 10 19 1021.5 - 0.0
22/09:30am 16.3 12.1 7.3 55 4.5 S 19 30 10 16 1021.4 - 0.0
22/08:30am 15.8 12.6 9.9 68 3.1 S 17 28 9 15 1021.0 - 0.4
22/08:00am 15.5 13.4 11.3 76 2.3 S 13 19 7 10 1020.7 - 0.4
22/07:30am 15.1 13.2 11.7 80 1.8 SSW 13 22 7 12 1020.5 - 0.4
22/07:00am 14.2 13.1 12.1 87 1.1 S 9 13 5 7 1020.2 - 0.4
22/06:30am 13.7 13.3 11.0 84 1.4 S 4 7 2 4 1019.9 - 0.4
22/06:00am 14.7 13.6 11.8 83 1.6 S 9 13 5 7 1019.4 1018.9 0.4
22/05:30am 14.9 14.3 12.4 85 1.4 SSE 7 15 4 8 1018.9 - 0.4
22/05:15am 15.1 14.6 12.8 86 1.3 S 7 19 4 10 1018.8 - 0.4
22/05:00am 15.3 14.5 13.0 86 1.3 S 9 15 5 8 1018.6 - 0.4
22/04:30am 15.4 16.4 13.2 87 1.2 CALM 0 0 0 0 1018.5 - 0.4
22/04:17am 15.5 16.5 13.3 87 1.2 CALM 0 0 0 0 1018.4 - 0.4
22/04:00am 15.8 16.2 13.8 88 1.1 SE 4 7 2 4 1018.4 - 0.4
22/03:30am 16.0 16.1 14.0 88 1.1 SSE 6 11 3 6 1018.7 - 0.4
22/03:00am 16.1 16.3 14.1 88 1.1 SSE 6 9 3 5 1018.7 1018.2 0.2
22/02:30am 16.3 16.3 14.3 88 1.1 SSE 7 9 4 5 1018.8 - 0.2
22/02:00am 16.3 16.3 14.3 88 1.1 SSE 7 11 4 6 1019.1 - 0.2
22/01:30am 17.0 16.6 14.1 83 1.7 S 9 15 5 8 1019.3 - 0.0
22/01:00am 17.0 16.2 14.1 83 1.7 SSW 11 17 6 9 1019.1 - 0.0
22/12:30am 17.7 16.9 14.0 79 2.1 SSW 11 17 6 9 1019.3 - 0.0
22/12:00am 18.0 18.2 14.3 79 2.1 SSW 6 9 3 5 1019.1 1018.6 0.0
 
Date/Time
EST
Temp
°C
App
Temp
°C
Dew
Point
Rel
Hum
%
Delta-T
°C
Wind Press
QNH
hPa
Press
MSL
hPa
Rain
since 9 am
mm
Dir
 
Spd
km/h
Gust
km/h
Spd
kts
Gust
kts
21/11:30pm 17.9 18.8 14.0 78 2.2 ESE 2 6 1 3 1019.3 - 0.0
21/11:00pm 18.7 18.6 13.3 71 3.1 S 6 7 3 4 1019.6 - 0.0
21/10:30pm 19.2 19.4 13.2 68 3.4 SSE 4 9 2 5 1019.6 - 0.0
21/10:00pm 19.3 19.0 13.2 68 3.5 SSE 7 11 4 6 1019.5 - 0.0
21/09:30pm 19.0 18.7 13.4 70 3.2 SE 7 13 4 7 1019.6 - 0.0
21/09:00pm 19.0 18.3 13.2 69 3.3 SSE 9 17 5 9 1019.4 1018.9 0.0
21/08:30pm 19.6 18.7 13.8 69 3.4 SSE 11 17 6 9 1019.3 - 0.0
21/08:00pm 19.7 19.4 13.2 66 3.7 SSE 7 13 4 7 1018.5 - 0.0
21/07:30pm 20.6 19.7 13.8 65 4.0 S 11 22 6 12 1018.0 - 0.0
21/07:00pm 20.5 20.6 13.9 66 3.8 SSE 6 9 3 5 1017.4 - 0.0
21/06:30pm 21.5 21.8 14.4 64 4.2 SSW 6 9 3 5 1017.1 - 0.0
21/06:00pm 22.4 22.7 14.5 61 4.7 S 6 11 3 6 1016.7 1016.3 0.0
21/05:30pm 23.7 23.8 14.4 56 5.5 SSW 7 11 4 6 1016.4 - 0.0
21/05:00pm 25.8 25.4 14.0 48 7.0 WSW 9 13 5 7 1016.1 - 0.0
21/04:30pm 27.3 26.9 14.0 44 8.0 W 9 11 5 6 1015.9 - 0.0
21/04:00pm 27.7 27.1 13.6 42 8.4 WSW 9 15 5 8 1015.6 - 0.0
21/03:30pm 28.1 26.8 13.6 41 8.7 NW 13 17 7 9 1015.6 - 0.0
21/03:00pm 28.2 28.2 15.1 44 8.0 SW 9 17 5 9 1015.8 1015.3 0.0
21/02:30pm 28.9 28.1 15.1 43 8.5 NW 13 19 7 10 1016.0 - 0.0
21/02:00pm 26.7 28.0 15.1 49 7.1 W 2 13 1 7 1016.3 - 0.0
21/01:30pm 28.0 27.2 15.0 45 8.0 NW 13 17 7 9 1016.3 - 0.0
21/01:00pm 27.4 27.7 15.1 47 7.5 NE 7 17 4 9 1016.9 - 0.0
21/12:30pm 26.6 26.1 15.0 49 7.1 WNW 11 17 6 9 1017.6 - 0.0
21/12:00pm 26.7 27.1 15.4 50 6.9 N 7 17 4 9 1018.2 1017.7 0.0
21/11:30am 26.1 27.2 16.6 55 5.9 WSW 6 11 3 6 1018.9 - 0.0
21/11:00am 25.7 26.2 17.4 60 5.2 W 11 13 6 7 1019.4 - 0.0
21/10:30am 23.5 23.4 16.1 63 4.5 W 11 20 6 11 1019.7 - 0.0
21/10:00am 23.4 23.5 16.4 64 4.3 NNW 11 15 6 8 1019.9 - 0.0
21/09:30am 22.7 23.5 17.2 71 3.4 WSW 9 13 5 7 1020.2 - 0.0
21/09:00am 21.3 22.4 17.1 77 2.6 SW 7 9 4 5 1020.5 1020.0 0.0
21/08:33am 19.3 21.6 16.7 85 1.6 CALM 0 0 0 0 1020.2 - 0.0
21/08:30am 19.5 21.9 17.1 86 1.5 CALM 0 0 0 0 1020.2 - 0.0
21/08:00am 16.3 17.0 15.5 95 0.5 ENE 6 7 3 4 1020.2 - 0.0
21/07:30am 14.8 15.8 14.2 96 0.3 SE 2 7 1 4 1020.2 - 0.0
21/07:00am 14.1 15.2 13.5 96 0.3 CALM 0 0 0 0 1019.8 - 0.0
21/06:30am 14.0 15.1 13.4 96 0.3 CALM 0 0 0 0 1019.4 - 0.0
21/06:00am 13.4 13.1 12.8 96 0.3 E 6 6 3 3 1019.3 1018.8 0.0
21/05:38am 13.6 13.2 13.1 97 0.3 ESE 7 9 4 5 1019.1 - 0.0
21/05:30am 13.0 12.4 12.4 96 0.3 ESE 7 9 4 5 1019.1 - 0.0
21/05:00am 13.0 11.7 12.5 97 0.3 E 11 11 6 6 1018.6 - 0.0
21/04:30am 12.1 11.4 11.3 95 0.4 E 6 9 3 5 1018.8 - 0.0
21/04:00am 12.7 13.3 11.8 94 0.5 CALM 0 0 0 0 1018.9 - 0.0
21/03:30am 13.2 13.6 12.4 95 0.4 ENE 2 6 1 3 1018.7 - 0.0
21/03:00am 12.5 11.6 11.4 93 0.6 ENE 7 9 4 5 1018.5 1018.0 0.0
21/02:30am 13.5 14.3 12.4 93 0.6 CALM 0 0 0 0 1018.7 - 0.0
21/02:00am 13.8 13.8 12.4 91 0.8 SSE 4 9 2 5 1018.9 - 0.0
21/01:30am 14.5 14.7 13.2 92 0.7 E 4 6 2 3 1019.0 - 0.0
21/01:00am 15.2 16.5 14.1 93 0.6 CALM 0 0 0 0 1019.4 - 0.0
21/12:30am 15.1 16.2 13.5 90 0.9 CALM 0 0 0 0 1019.5 - 0.0
21/12:00am 16.1 16.8 14.5 90 0.9 ESE 4 9 2 5 1019.6 1019.1 0.0
 
Date/Time
EST
Temp
°C
App
Temp
°C
Dew
Point
Rel
Hum
%
Delta-T
°C
Wind Press
QNH
hPa
Press
MSL
hPa
Rain
since 9 am
mm
Dir
 
Spd
km/h
Gust
km/h
Spd
kts
Gust
kts
20/11:30pm 15.9 17.0 13.4 85 1.4 CALM 0 0 0 0 1019.6 - 0.0
20/11:00pm 17.2 18.5 14.1 82 1.8 CALM 0 0 0 0 1019.7 - 0.0
20/10:30pm 18.1 19.2 14.6 80 2.0 ENE 2 7 1 4 1019.7 - 0.0
20/10:00pm 19.1 19.3 14.1 73 2.9 W 6 9 3 5 1019.7 - 0.0
20/09:30pm 21.1 21.4 16.1 73 3.0 NNE 9 13 5 7 1019.8 - 0.0
20/09:00pm 21.1 21.7 15.4 70 3.4 SSW 6 9 3 5 1019.9 1019.4 0.0
20/08:30pm 21.7 21.8 15.5 68 3.7 NNE 9 17 5 9 1019.7 - 0.0
20/08:00pm 22.5 20.9 16.1 67 3.9 NE 19 24 10 13 1019.2 - 0.0
20/07:30pm 22.9 23.2 16.0 65 4.2 NE 9 15 5 8 1019.0 - 0.0
20/07:00pm 23.6 23.0 15.6 61 4.9 NNE 13 20 7 11 1018.5 - 0.0
20/06:30pm 24.4 23.5 14.8 55 5.8 NNE 13 17 7 9 1018.1 - 0.0
20/06:00pm 25.1 24.6 14.8 52 6.2 NNE 11 17 6 9 1017.5 1017.1 0.0
20/05:30pm 25.4 25.1 14.5 51 6.5 NNE 9 13 5 7 1017.4 - 0.0
20/05:00pm 26.9 26.7 13.6 44 7.9 N 7 11 4 6 1017.1 - 0.0
20/04:30pm 28.2 28.0 13.7 41 8.7 NW 7 11 4 6 1016.8 - 0.0
20/04:00pm 28.8 28.2 13.5 39 9.2 N 9 13 5 7 1016.6 - 0.0
20/03:30pm 28.6 28.1 12.5 37 9.5 N 7 13 4 7 1016.5 - 0.0
20/03:00pm 29.3 29.1 13.1 37 9.7 WNW 6 11 3 6 1016.8 1016.4 0.0
20/02:30pm 29.1 28.8 13.3 37 9.5 SW 7 9 4 5 1017.0 - 0.0
20/02:00pm 27.9 27.5 14.2 43 8.3 S 9 11 5 6 1017.0 - 0.0
20/01:30pm 27.2 28.5 14.2 44 7.8 CALM 0 6 0 3 1017.4 - 0.0
20/01:00pm 27.8 27.3 13.7 42 8.4 NW 9 11 5 6 1018.0 - 0.0
20/12:30pm 27.2 26.7 13.9 44 8.0 ESE 9 13 5 7 1018.6 - 0.0
20/12:00pm 26.5 26.0 13.9 45 7.5 ESE 9 13 5 7 1019.2 1018.7 0.0
20/11:30am 26.8 27.3 14.9 48 7.2 SE 6 13 3 7 1019.7 - 0.0
20/11:00am 25.5 25.9 15.2 53 6.3 WSW 7 13 4 7 1020.0 - 0.0
20/10:30am 24.6 25.3 15.5 57 5.5 NW 6 11 3 6 1020.4 - 0.0
20/10:00am 23.7 24.6 16.0 62 4.7 NNE 6 7 3 4 1020.6 - 0.0
20/09:30am 21.6 23.8 16.6 73 3.1 CALM 0 6 0 3 1021.0 - 0.0
20/09:00am 19.4 20.3 16.1 81 2.0 E 6 7 3 4 1021.0 1020.5 0.4
20/08:30am 17.5 18.2 15.7 89 1.1 E 6 9 3 5 1021.0 - 0.4
20/08:00am 16.0 16.4 15.2 95 0.5 E 7 9 4 5 1020.9 - 0.2
20/07:30am 14.4 14.5 13.9 97 0.3 E 6 7 3 4 1020.6 - 0.2
20/07:00am 13.1 12.2 12.6 97 0.3 E 9 9 5 5 1020.3 - 0.2
20/06:30am 13.0 12.5 12.5 97 0.3 E 7 9 4 5 1020.2 - 0.2
20/06:00am 12.9 11.9 12.4 97 0.3 E 9 11 5 6 1019.9 1019.4 0.2
20/05:30am 12.7 11.3 12.2 97 0.3 E 11 11 6 6 1019.6 - 0.2
20/05:00am 13.0 12.1 12.5 97 0.3 E 9 11 5 6 1019.4 - 0.2
20/04:41am 13.0 12.1 12.5 97 0.3 E 9 11 5 6 1019.4 - 0.2
20/04:30am 13.4 12.6 12.9 97 0.3 E 9 9 5 5 1019.3 - 0.2
20/04:00am 12.9 12.3 12.3 96 0.3 E 7 9 4 5 1019.3 - 0.2
20/03:42am 12.9 12.3 12.3 96 0.3 E 7 9 4 5 1019.0 - 0.2
20/03:30am 13.7 13.4 13.2 97 0.3 E 7 9 4 5 1019.1 - 0.2
20/03:21am 13.6 13.2 13.1 97 0.3 E 7 9 4 5 1019.1 - 0.2
20/03:07am 13.4 12.9 12.8 96 0.3 E 7 9 4 5 1019.1 - 0.2
20/03:00am 13.2 12.7 12.6 96 0.3 E 7 9 4 5 1019.0 1018.5 0.2
20/02:55am 12.6 11.8 11.7 94 0.5 E 7 7 4 4 1019.0 - 0.2
20/02:36am 13.3 13.0 12.7 96 0.3 ESE 6 7 3 4 1019.0 - 0.2
20/02:33am 14.1 14.1 13.5 96 0.3 E 6 7 3 4 1019.0 - 0.2
20/02:30am 14.0 13.9 13.4 96 0.3 E 6 7 3 4 1018.9 - 0.2
20/02:11am 13.8 13.7 13.2 96 0.3 E 6 7 3 4 1019.0 - 0.2
20/02:00am 14.2 14.0 13.7 97 0.3 E 7 9 4 5 1019.1 - 0.2
20/01:35am 14.1 13.5 13.5 96 0.3 E 9 9 5 5 1019.1 - 0.2
20/01:30am 14.1 13.9 13.5 96 0.3 E 7 9 4 5 1019.1 - 0.2
20/01:03am 13.4 13.0 12.5 94 0.5 ESE 6 7 3 4 1019.2 - 0.2
20/01:00am 13.9 13.7 13.1 95 0.4 ESE 6 7 3 4 1019.2 - 0.2
20/12:54am 13.6 13.3 12.8 95 0.4 ESE 6 7 3 4 1019.3 - 0.2
20/12:30am 13.6 13.3 12.7 94 0.5 E 6 7 3 4 1019.3 - 0.2
20/12:00am 14.4 15.5 13.6 95 0.4 CALM 0 0 0 0 1019.6 1019.1 0.2
 
Date/Time
EST
Temp
°C
App
Temp
°C
Dew
Point
Rel
Hum
%
Delta-T
°C
Wind Press
QNH
hPa
Press
MSL
hPa
Rain
since 9 am
mm
Dir
 
Spd
km/h
Gust
km/h
Spd
kts
Gust
kts
19/11:30pm 14.1 15.0 13.0 93 0.6 CALM 0 0 0 0 1019.9 - 0.2
19/11:00pm 14.9 16.0 13.6 92 0.7 CALM 0 0 0 0 1020.2 - 0.2
19/10:50pm 15.4 16.8 14.3 93 0.6 CALM 0 0 0 0 1020.1 - 0.2
19/10:30pm 15.4 16.7 14.1 92 0.7 CALM 0 0 0 0 1020.2 - 0.2
19/10:00pm 16.2 16.7 15.1 93 0.6 NE 6 7 3 4 1020.1 - 0.2
19/09:30pm 15.8 15.9 14.0 89 1.0 ESE 6 7 3 4 1020.1 - 0.2
19/09:00pm 17.3 19.1 15.6 90 1.0 CALM 0 0 0 0 1019.9 1019.4 0.2
19/08:30pm 18.3 20.5 16.5 89 1.1 CALM 0 4 0 2 1019.8 - 0.2
19/08:00pm 19.0 21.1 17.1 89 1.2 S 2 9 1 5 1019.6 - 0.2

Other Formats:

Comma delimited format used in spreadsheet applications
http://www.bom.gov.au/fwo/IDQ60801/IDQ60801.94376.axf

JavaScript Object Notation format (JSON) in row-major order
http://www.bom.gov.au/fwo/IDQ60801/IDQ60801.94376.json